Time;durP1;ratioP1;P1;durP2;ratioP2;P2;SDS_P1;SDS_P2;PMS_P1;PMS_P2;Temp;Humidity;BMP_temperature;BMP_pressure;BME280_temperature;BME280_humidity;BME280_pressure;Samples;Min_cycle;Max_cycle;Signal;HPM_P1;HPM_P2
2021/12/27 00:01:32;;;;;;;28.38;18.25;;;;;;;0.43;100.00;99817.22;6162192;23;20017;-84
2021/12/27 00:04:11;;;;;;;28.20;18.33;;;;;;;0.48;100.00;99810.72;6123426;23;20060;-84
2021/12/27 00:06:37;;;;;;;28.75;17.25;;;;;;;0.48;100.00;99816.81;6172084;23;20028;-83
2021/12/27 00:09:12;;;;;;;27.65;17.80;;;;;;;0.48;100.00;99806.25;6170560;23;20034;-84
2021/12/27 00:11:39;;;;;;;30.00;19.67;;;;;;;0.50;100.00;99814.91;6175594;23;20098;-85
2021/12/27 00:14:08;;;;;;;28.67;17.75;;;;;;;0.54;100.00;99815.50;6161589;23;20013;-84
2021/12/27 00:16:34;;;;;;;29.42;19.25;;;;;;;0.56;100.00;99803.03;6161098;23;20072;-85
2021/12/27 00:19:02;;;;;;;29.98;19.75;;;;;;;0.58;100.00;99803.75;6164532;23;20033;-85
2021/12/27 00:21:27;;;;;;;26.50;16.15;;;;;;;0.61;100.00;99806.13;6151000;23;20083;-84
2021/12/27 00:23:54;;;;;;;27.70;17.42;;;;;;;0.62;100.00;99786.66;6133849;23;20016;-84
2021/12/27 00:26:20;;;;;;;25.70;16.40;;;;;;;0.63;100.00;99788.34;6166409;23;20111;-84
2021/12/27 00:28:47;;;;;;;27.80;18.58;;;;;;;0.67;100.00;99789.78;6163426;23;20018;-83
2021/12/27 00:31:16;;;;;;;30.45;20.13;;;;;;;0.68;100.00;99781.72;6122544;23;20509;-85
2021/12/27 00:33:44;;;;;;;28.13;17.08;;;;;;;0.67;100.00;99784.50;6171265;23;20360;-84
2021/12/27 00:36:23;;;;;;;28.17;17.10;;;;;;;0.68;100.00;99779.09;6165701;23;20448;-84
2021/12/27 00:38:49;;;;;;;27.58;16.90;;;;;;;0.66;100.00;99773.09;6163386;23;20029;-84
2021/12/27 00:41:17;;;;;;;26.08;16.88;;;;;;;0.67;100.00;99769.50;6134957;23;20396;-85
2021/12/27 00:43:43;;;;;;;30.52;18.77;;;;;;;0.67;100.00;99764.22;6145128;23;20013;-86
2021/12/27 00:46:09;;;;;;;26.20;17.17;;;;;;;0.66;100.00;99759.91;6159568;23;20095;-84
2021/12/27 00:48:35;;;;;;;27.88;18.95;;;;;;;0.68;100.00;99763.25;6145615;23;20013;-84
2021/12/27 00:51:03;;;;;;;29.17;19.13;;;;;;;0.72;100.00;99757.69;6123515;23;20018;-86
2021/12/27 00:53:38;;;;;;;26.80;17.75;;;;;;;0.70;100.00;99759.66;6160208;23;20017;-84
2021/12/27 00:56:04;;;;;;;27.23;17.88;;;;;;;0.71;100.00;99758.69;6169784;23;20433;-84
2021/12/27 00:58:29;;;;;;;28.13;17.42;;;;;;;0.71;100.00;99750.75;6134690;23;20028;-84
2021/12/27 01:00:57;;;;;;;28.00;17.95;;;;;;;0.74;100.00;99753.13;6097084;23;20019;-82
2021/12/27 01:03:25;;;;;;;29.90;18.13;;;;;;;0.73;100.00;99751.47;6172021;23;20013;-85
2021/12/27 01:05:58;;;;;;;27.60;18.45;;;;;;;0.75;100.00;99749.53;6201936;23;20028;-84
2021/12/27 01:08:36;;;;;;;30.80;19.85;;;;;;;0.75;100.00;99749.53;6160041;23;20092;-86
2021/12/27 01:11:24;;;;;;;24.42;16.88;;;;;;;0.76;100.00;99754.69;6136357;23;20021;-84
2021/12/27 01:14:04;;;;;;;27.23;18.40;;;;;;;0.74;100.00;99758.41;6155388;23;20013;-84
2021/12/27 01:16:34;;;;;;;28.75;19.85;;;;;;;0.75;100.00;99755.66;6159895;23;20088;-86
2021/12/27 01:19:12;;;;;;;28.70;19.67;;;;;;;0.78;100.00;99754.59;6195436;23;20404;-85
2021/12/27 01:21:45;;;;;;;26.80;18.27;;;;;;;0.79;100.00;99758.88;6159787;23;20077;-85
2021/12/27 01:24:19;;;;;;;30.30;20.80;;;;;;;0.83;100.00;99760.28;6121380;23;20093;-85
2021/12/27 01:26:45;;;;;;;28.42;18.90;;;;;;;0.85;100.00;99761.00;6202233;23;20017;-84
2021/12/27 01:29:11;;;;;;;27.17;17.75;;;;;;;0.87;100.00;99761.75;6160986;23;20021;-85
2021/12/27 01:31:42;;;;;;;26.80;17.63;;;;;;;0.89;100.00;99767.72;6160169;23;20076;-84
2021/12/27 01:34:09;;;;;;;27.83;18.33;;;;;;;0.88;100.00;99763.41;6147380;23;20088;-84
2021/12/27 01:36:36;;;;;;;26.40;15.55;;;;;;;0.90;100.00;99769.41;6099484;23;20024;-85
2021/12/27 01:39:05;;;;;;;25.50;17.42;;;;;;;0.92;100.00;99772.72;6096741;23;20025;-84
2021/12/27 01:41:32;;;;;;;26.80;16.65;;;;;;;0.90;100.00;99779.97;6147772;23;20448;-84
2021/12/27 01:44:04;;;;;;;28.33;17.40;;;;;;;0.91;100.00;99771.06;6122005;23;20428;-84
2021/12/27 01:46:34;;;;;;;28.38;19.30;;;;;;;0.93;100.00;99771.78;6147551;23;20021;-84
2021/12/27 01:49:07;;;;;;;27.85;17.92;;;;;;;0.93;100.00;99769.16;6147230;23;20024;-84
2021/12/27 01:51:38;;;;;;;27.27;17.20;;;;;;;0.93;100.00;99761.22;6147324;23;20068;-85
2021/12/27 01:54:12;;;;;;;28.85;18.38;;;;;;;0.94;100.00;99759.41;6171148;23;20041;-85
2021/12/27 01:56:39;;;;;;;27.52;17.77;;;;;;;0.94;100.00;99757.59;6146294;23;20017;-84
2021/12/27 01:59:07;;;;;;;24.73;17.15;;;;;;;0.95;100.00;99747.88;6146063;23;20022;-86
2021/12/27 02:01:33;;;;;;;29.27;18.65;;;;;;;0.95;100.00;99743.44;6148541;23;20022;-83
2021/12/27 02:03:59;;;;;;;28.40;18.08;;;;;;;0.95;100.00;99746.09;6145654;23;20032;-85
2021/12/27 02:06:28;;;;;;;27.02;18.45;;;;;;;0.97;100.00;99746.78;6122055;23;20018;-86
2021/12/27 02:08:54;;;;;;;28.88;19.77;;;;;;;0.98;100.00;99745.84;6145804;23;20043;-84
2021/12/27 02:11:21;;;;;;;27.90;19.13;;;;;;;0.98;100.00;99743.19;6171890;23;20021;-84
2021/12/27 02:13:47;;;;;;;25.15;18.45;;;;;;;0.98;100.00;99740.53;6113292;23;20104;-85
2021/12/27 02:16:22;;;;;;;27.27;18.58;;;;;;;0.99;100.00;99741.38;6173333;23;20558;-84
2021/12/27 02:18:50;;;;;;;30.65;18.80;;;;;;;1.00;100.00;99735.13;6150793;23;20075;-85
2021/12/27 02:21:22;;;;;;;28.33;19.27;;;;;;;0.99;100.00;99734.28;6175232;23;20094;-84
2021/12/27 02:23:49;;;;;;;29.23;18.42;;;;;;;1.00;100.00;99733.31;6176146;23;20017;-85
2021/12/27 02:26:17;;;;;;;27.80;18.48;;;;;;;1.01;100.00;99728.88;6199779;23;20021;-85
2021/12/27 02:28:46;;;;;;;27.45;18.48;;;;;;;1.01;100.00;99732.38;6176422;23;20009;-85
2021/12/27 02:31:20;;;;;;;27.63;16.88;;;;;;;1.03;100.00;99733.06;6150537;23;20024;-84
2021/12/27 02:33:54;;;;;;;28.58;17.60;;;;;;;1.01;100.00;99729.72;6175539;23;20009;-85
2021/12/27 02:36:24;;;;;;;29.40;20.45;;;;;;;1.03;100.00;99729.56;6175075;23;20048;-84
2021/12/27 02:38:51;;;;;;;29.23;17.70;;;;;;;1.02;100.00;99712.88;6175637;23;20066;-84
2021/12/27 02:41:19;;;;;;;29.83;19.70;;;;;;;1.02;100.00;99712.88;6175771;23;20017;-84
2021/12/27 02:43:45;;;;;;;28.25;19.55;;;;;;;1.03;100.00;99717.19;6174715;23;20040;-86
2021/12/27 02:46:14;;;;;;;28.40;18.52;;;;;;;1.04;100.00;99707.50;6174824;23;20031;-85
2021/12/27 02:48:47;;;;;;;28.55;19.05;;;;;;;1.04;100.00;99707.50;6177785;23;20099;-85
2021/12/27 02:51:17;;;;;;;28.85;19.52;;;;;;;1.04;100.00;99702.22;6175005;23;20017;-84
2021/12/27 02:53:44;;;;;;;28.85;19.13;;;;;;;1.04;100.00;99707.50;6177223;23;20027;-85
2021/12/27 02:56:11;;;;;;;30.90;19.48;;;;;;;1.03;100.00;99704.00;6199777;23;20020;-85
2021/12/27 02:58:37;;;;;;;30.63;20.08;;;;;;;1.03;100.00;99706.63;6175586;23;20543;-84
2021/12/27 03:01:15;;;;;;;31.75;20.60;;;;;;;1.03;100.00;99695.22;6148570;23;20072;-85
2021/12/27 03:03:41;;;;;;;29.33;19.42;;;;;;;1.02;100.00;99699.69;6175838;23;20051;-85
2021/12/27 03:06:08;;;;;;;31.55;21.08;;;;;;;1.01;100.00;99698.03;6175021;23;20025;-85
2021/12/27 03:08:38;;;;;;;33.85;20.92;;;;;;;1.02;100.00;99697.03;6177166;23;20615;-84
2021/12/27 03:11:14;;;;;;;33.17;21.10;;;;;;;1.03;100.00;99701.34;6175521;23;20071;-86
2021/12/27 03:13:46;;;;;;;32.70;20.50;;;;;;;1.01;100.00;99692.72;6175288;23;20009;-85
2021/12/27 03:16:15;;;;;;;33.85;22.02;;;;;;;1.00;100.00;99684.94;6150260;23;20021;-85
2021/12/27 03:18:46;;;;;;;;;;;;;;;0.99;100.00;99684.09;6177433;23;20112;-85
2021/12/27 03:21:16;;;;;;;33.20;19.00;;;;;;;0.92;100.00;99680.28;6199807;23;19931;-84
2021/12/27 03:23:49;;;;;;;33.33;21.35;;;;;;;0.94;100.00;99682.81;6178149;23;20040;-85
2021/12/27 03:26:24;;;;;;;32.05;20.83;;;;;;;0.95;100.00;99685.34;6176577;23;20455;-84
2021/12/27 03:28:55;;;;;;;33.42;20.70;;;;;;;0.98;100.00;99673.63;6149847;23;20032;-84
2021/12/27 03:31:22;;;;;;;33.08;21.95;;;;;;;0.99;100.00;99677.97;6175256;23;20670;-85
2021/12/27 03:33:55;;;;;;;35.03;23.25;;;;;;;0.99;100.00;99670.06;6163868;23;20057;-84
2021/12/27 03:36:37;;;;;;;33.85;19.48;;;;;;;1.01;100.00;99676.88;6150921;23;20017;-85
2021/12/27 03:39:10;;;;;;;33.63;21.48;;;;;;;1.01;100.00;99676.06;6175230;23;20017;-85
2021/12/27 03:41:36;;;;;;;32.65;19.33;;;;;;;1.00;100.00;99677.81;6176499;23;20359;-85
2021/12/27 03:44:03;;;;;;;32.83;22.33;;;;;;;1.02;100.00;99683.00;6177177;23;20027;-84
2021/12/27 03:46:32;;;;;;;33.05;20.70;;;;;;;1.02;100.00;99683.81;6178914;23;20116;-85
2021/12/27 03:49:03;;;;;;;37.23;23.03;;;;;;;1.03;100.00;99677.56;6125459;23;20017;-87
2021/12/27 03:51:28;;;;;;;33.55;21.77;;;;;;;1.03;100.00;99682.84;6175760;23;20456;-85
2021/12/27 03:53:54;;;;;;;34.90;22.90;;;;;;;1.05;100.00;99688.03;6150497;23;20021;-85
2021/12/27 03:56:27;;;;;;;30.75;20.73;;;;;;;1.04;100.00;99675.78;6176330;23;20041;-85
2021/12/27 03:58:59;;;;;;;33.97;22.65;;;;;;;1.05;100.00;99678.28;6199796;23;20035;-86
2021/12/27 04:01:26;;;;;;;33.42;22.33;;;;;;;1.07;100.00;99660.50;6175556;23;20083;-83
2021/12/27 04:03:57;;;;;;;34.35;21.85;;;;;;;1.07;100.00;99663.16;6150237;23;20017;-86
2021/12/27 04:06:25;;;;;;;34.85;21.48;;;;;;;1.08;100.00;99667.44;6177624;23;20025;-86
2021/12/27 04:08:53;;;;;;;31.83;20.87;;;;;;;1.10;100.00;99662.06;6153180;23;20017;-85
2021/12/27 04:11:19;;;;;;;35.38;21.63;;;;;;;1.08;100.00;99662.16;6152450;23;20403;-84
2021/12/27 04:13:49;;;;;;;33.38;21.40;;;;;;;1.11;100.00;99661.06;6176934;23;20028;-85
2021/12/27 04:16:16;;;;;;;33.13;19.95;;;;;;;1.10;100.00;99659.41;6178511;23;20009;-85
2021/12/27 04:18:42;;;;;;;34.50;21.63;;;;;;;1.09;100.00;99653.28;6153578;23;20025;-84
2021/12/27 04:21:08;;;;;;;35.15;22.70;;;;;;;1.09;100.00;99657.72;6150997;23;20051;-85
2021/12/27 04:23:34;;;;;;;34.42;22.58;;;;;;;1.10;100.00;99656.75;6153186;23;20021;-84
2021/12/27 04:26:19;;;;;;;36.92;24.20;;;;;;;1.12;100.00;99653.03;6127779;23;20095;-87
2021/12/27 04:28:46;;;;;;;38.80;24.73;;;;;;;1.12;100.00;99652.16;6177375;23;20013;-85
2021/12/27 04:31:14;;;;;;;35.63;23.38;;;;;;;1.11;100.00;99647.84;6176177;23;20048;-86
2021/12/27 04:33:42;;;;;;;39.08;23.60;;;;;;;1.11;100.00;99651.34;6128802;23;20039;-85
2021/12/27 04:36:15;;;;;;;37.73;22.83;;;;;;;1.12;100.00;99647.75;6176104;23;20108;-85
2021/12/27 04:38:44;;;;;;;37.05;22.23;;;;;;;1.13;100.00;99649.41;6176845;23;20067;-84
2021/12/27 04:41:15;;;;;;;37.42;23.70;;;;;;;1.14;100.00;99650.22;6176784;23;20051;-84
2021/12/27 04:43:40;;;;;;;37.75;23.58;;;;;;;1.14;100.00;99650.22;6172925;23;20120;-85
2021/12/27 04:46:06;;;;;;;37.72;23.15;;;;;;;1.13;100.00;99644.13;6176116;23;20032;-85
2021/12/27 04:48:35;;;;;;;34.42;22.55;;;;;;;1.16;100.00;99647.47;6179640;23;20020;-85
2021/12/27 04:51:01;;;;;;;38.13;21.48;;;;;;;1.17;100.00;99639.41;6150647;23;20087;-84
2021/12/27 04:53:27;;;;;;;35.65;23.90;;;;;;;1.17;100.00;99634.13;6152605;23;20013;-87
2021/12/27 04:55:53;;;;;;;38.40;22.23;;;;;;;1.18;100.00;99625.25;6151008;23;20429;-85
2021/12/27 04:58:28;;;;;;;39.85;23.63;;;;;;;1.21;100.00;99629.41;6175654;23;20857;-85
2021/12/27 05:00:55;;;;;;;36.58;23.25;;;;;;;1.23;100.00;99622.19;6175065;23;20024;-85
2021/12/27 05:03:24;;;;;;;36.70;22.63;;;;;;;1.24;100.00;99629.16;6099369;23;20021;-87
2021/12/27 05:05:55;;;;;;;35.40;24.23;;;;;;;1.26;100.00;99624.56;6177213;23;20021;-85
2021/12/27 05:08:21;;;;;;;33.63;19.92;;;;;;;1.27;100.00;99613.03;6124285;23;20487;-84
2021/12/27 05:10:48;;;;;;;36.78;21.98;;;;;;;1.28;100.00;99619.97;6174812;23;20028;-86
2021/12/27 05:13:25;;;;;;;34.88;20.58;;;;;;;1.29;100.00;99616.34;6116755;23;20024;-86
2021/12/27 05:15:53;;;;;;;35.28;22.63;;;;;;;1.31;100.00;99620.53;6138123;23;20388;-86
2021/12/27 05:18:18;;;;;;;33.97;22.03;;;;;;;1.34;100.00;99622.09;6122392;23;20032;-86
2021/12/27 05:20:44;;;;;;;33.97;22.58;;;;;;;1.34;100.00;99614.16;6201715;23;20392;-86
2021/12/27 05:23:11;;;;;;;38.47;22.50;;;;;;;1.36;100.00;99612.22;6171821;23;20013;-85
2021/12/27 05:25:40;;;;;;;35.70;22.92;;;;;;;1.36;100.00;99614.88;6098410;23;20022;-85
2021/12/27 05:28:06;;;;;;;34.40;22.67;;;;;;;1.38;100.00;99607.63;6197581;23;20067;-86
2021/12/27 05:30:38;;;;;;;35.78;20.70;;;;;;;1.39;100.00;99605.84;6134841;23;20025;-86
2021/12/27 05:33:03;;;;;;;34.95;22.58;;;;;;;1.41;100.00;99604.72;6166320;23;20080;-87
2021/12/27 05:35:29;;;;;;;34.05;21.25;;;;;;;1.42;100.00;99600.28;6168966;23;20482;-86
2021/12/27 05:37:55;;;;;;;36.05;22.27;;;;;;;1.41;100.00;99591.50;6179622;23;20079;-86
2021/12/27 05:40:22;;;;;;;36.50;23.50;;;;;;;1.42;100.00;99592.34;6162541;23;20734;-85
2021/12/27 05:42:50;;;;;;;38.42;23.50;;;;;;;1.43;100.00;99592.19;6172466;23;20096;-85
2021/12/27 05:45:18;;;;;;;38.90;22.85;;;;;;;1.43;100.00;99591.38;6171165;23;20017;-86
2021/12/27 05:48:01;;;;;;;38.42;23.58;;;;;;;1.43;100.00;99600.13;6122510;23;20029;-86
2021/12/27 05:50:34;;;;;;;36.78;23.75;;;;;;;1.44;100.00;99593.88;6173880;23;20022;-86
2021/12/27 05:53:01;;;;;;;34.20;22.58;;;;;;;1.44;100.00;99590.38;6175257;23;20026;-84
2021/12/27 05:55:28;;;;;;;38.03;22.35;;;;;;;1.44;100.00;99596.53;6163446;23;20018;-86
2021/12/27 05:57:53;;;;;;;38.92;22.95;;;;;;;1.46;100.00;99589.28;6126426;23;20017;-86
2021/12/27 06:00:19;;;;;;;38.17;23.83;;;;;;;1.46;100.00;99585.81;6149189;23;20021;-86
2021/12/27 06:02:47;;;;;;;39.40;24.40;;;;;;;1.46;100.00;99594.56;6173534;23;20013;-85
2021/12/27 06:05:19;;;;;;;38.45;23.08;;;;;;;1.47;100.00;99595.44;6197696;23;20060;-85
2021/12/27 06:07:45;;;;;;;43.25;23.50;;;;;;;1.45;100.00;99592.91;6146128;23;20033;-86
2021/12/27 06:10:10;;;;;;;35.95;22.70;;;;;;;1.46;100.00;99586.63;6169969;23;20111;-86
2021/12/27 06:12:37;;;;;;;39.95;22.27;;;;;;;1.46;100.00;99596.38;6205178;23;20036;-85
2021/12/27 06:15:03;;;;;;;40.58;24.75;;;;;;;1.47;100.00;99593.63;6166102;23;20335;-85
2021/12/27 06:17:31;;;;;;;43.97;25.80;;;;;;;1.49;100.00;99585.53;6164844;23;20559;-86
2021/12/27 06:20:14;;;;;;;39.63;22.15;;;;;;;1.49;100.00;99581.06;6149544;23;20076;-85
2021/12/27 06:22:52;;;;;;;43.10;24.25;;;;;;;1.50;100.00;99585.41;6144881;23;20021;-86
2021/12/27 06:25:19;;;;;;;43.38;26.35;;;;;;;1.49;100.00;99578.44;6200938;23;20024;-86
2021/12/27 06:27:45;;;;;;;44.17;26.35;;;;;;;1.51;100.00;99589.72;6153917;23;20448;-86
2021/12/27 06:30:31;;;;;;;42.60;22.70;;;;;;;1.52;100.00;99586.09;6176068;23;20025;-86
2021/12/27 06:32:57;;;;;;;45.67;24.33;;;;;;;1.52;100.00;99579.97;6177059;23;20059;-85
2021/12/27 06:35:27;;;;;;;47.30;26.02;;;;;;;1.53;100.00;99576.38;6150356;23;20020;-85
2021/12/27 06:37:52;;;;;;;43.95;23.60;;;;;;;1.51;100.00;99573.03;6175773;23;20464;-86
2021/12/27 06:40:25;;;;;;;45.17;26.98;;;;;;;1.52;100.00;99570.22;6176607;23;20020;-85
2021/12/27 06:42:58;;;;;;;51.10;28.08;;;;;;;1.55;100.00;99574.41;6151766;23;20024;-86
2021/12/27 06:45:26;;;;;;;49.20;27.50;;;;;;;1.54;100.00;99563.00;6101384;23;20028;-85
2021/12/27 06:48:00;;;;;;;45.13;28.17;;;;;;;1.56;100.00;99563.72;6177594;23;20356;-86
2021/12/27 06:50:30;;;;;;;48.45;28.95;;;;;;;1.56;100.00;99565.53;6150575;23;20730;-83
2021/12/27 06:52:57;;;;;;;53.22;29.75;;;;;;;1.56;100.00;99561.06;6174855;23;20465;-85
2021/12/27 06:55:22;;;;;;;44.17;23.63;;;;;;;1.58;100.00;99559.13;6127127;23;20017;-84
2021/12/27 06:57:49;;;;;;;48.03;27.27;;;;;;;1.60;100.00;99555.50;6155307;23;20096;-85
2021/12/27 07:00:15;;;;;;;44.08;27.08;;;;;;;1.61;100.00;99552.69;6178702;23;20021;-84
2021/12/27 07:02:42;;;;;;;49.22;26.50;;;;;;;1.63;100.00;99552.59;6204546;23;20043;-84
2021/12/27 07:05:09;;;;;;;49.10;25.75;;;;;;;1.64;100.00;99563.03;6153367;23;20017;-86
2021/12/27 07:07:41;;;;;;;47.58;25.77;;;;;;;1.65;100.00;99561.22;6176682;23;20088;-85
2021/12/27 07:10:09;;;;;;;43.30;24.02;;;;;;;1.67;100.00;99564.53;6176584;23;20017;-85
2021/12/27 07:12:36;;;;;;;49.97;28.20;;;;;;;1.68;100.00;99568.88;6150903;23;20053;-84
2021/12/27 07:15:05;;;;;;;45.25;27.23;;;;;;;1.69;100.00;99568.72;6175738;23;20271;-85
2021/12/27 07:17:34;;;;;;;43.30;23.98;;;;;;;1.72;100.00;99564.97;6176525;23;20067;-84
2021/12/27 07:20:09;;;;;;;44.97;27.17;;;;;;;1.72;100.00;99572.91;6179144;23;20043;-84
2021/12/27 07:22:35;;;;;;;40.13;26.45;;;;;;;1.73;100.00;99577.25;6179517;23;20019;-84
2021/12/27 07:25:00;;;;;;;39.20;22.55;;;;;;;1.74;100.00;99589.47;6178757;23;20013;-84
2021/12/27 07:27:26;;;;;;;39.20;22.80;;;;;;;1.75;100.00;99580.56;6180534;23;20331;-84
2021/12/27 07:29:53;;;;;;;42.00;23.50;;;;;;;1.74;100.00;99573.63;6176813;23;20021;-85
2021/12/27 07:32:20;;;;;;;45.03;21.38;;;;;;;1.75;100.00;99580.56;6174851;23;20343;-85
2021/12/27 07:34:47;;;;;;;41.08;24.23;;;;;;;1.75;100.00;99581.41;6176492;23;20031;-84
2021/12/27 07:37:21;;;;;;;41.42;24.92;;;;;;;1.76;100.00;99587.56;6179055;23;20017;-84
2021/12/27 07:39:47;;;;;;;40.47;24.38;;;;;;;1.76;100.00;99590.19;6176999;23;20021;-85
2021/12/27 07:42:20;;;;;;;42.28;25.63;;;;;;;1.79;100.00;99593.41;6177144;23;20014;-85
2021/12/27 07:44:47;;;;;;;40.45;25.00;;;;;;;1.79;100.00;99589.91;6176388;23;20060;-86
2021/12/27 07:47:19;;;;;;;40.13;23.33;;;;;;;1.79;100.00;99592.56;6152790;23;20330;-86
2021/12/27 07:49:51;;;;;;;42.30;24.35;;;;;;;1.78;100.00;99589.09;6152181;23;20075;-85
2021/12/27 07:52:42;;;;;;;40.45;24.15;;;;;;;1.80;100.00;99594.22;6176280;23;20368;-84
2021/12/27 07:55:08;;;;;;;43.08;25.65;;;;;;;1.79;100.00;99588.09;6179117;23;20083;-84
2021/12/27 07:57:46;;;;;;;41.38;24.25;;;;;;;1.79;100.00;99585.47;6152570;23;20017;-85
2021/12/27 08:00:16;;;;;;;42.78;22.80;;;;;;;1.79;100.00;99592.56;6151405;23;20047;-85
2021/12/27 08:02:41;;;;;;;37.85;22.25;;;;;;;1.79;100.00;99587.28;6127388;23;20020;-85
2021/12/27 08:05:07;;;;;;;42.70;24.98;;;;;;;1.80;100.00;99586.28;6204330;23;20043;-85
2021/12/27 08:07:32;;;;;;;41.65;24.05;;;;;;;1.81;100.00;99580.00;6180101;23;20013;-85
2021/12/27 08:09:58;;;;;;;44.13;25.50;;;;;;;1.82;100.00;99575.59;6154709;23;20507;-85
2021/12/27 08:12:23;;;;;;;46.20;27.77;;;;;;;1.85;100.00;99573.50;6182787;23;20029;-85
2021/12/27 08:14:48;;;;;;;42.78;26.05;;;;;;;1.84;100.00;99577.09;6181148;23;20028;-85
2021/12/27 08:17:14;;;;;;;42.22;25.27;;;;;;;1.86;100.00;99575.16;6155884;23;20021;-85
2021/12/27 08:19:39;;;;;;;39.63;23.58;;;;;;;1.87;100.00;99568.91;6132352;23;20021;-85
2021/12/27 08:22:05;;;;;;;44.67;27.02;;;;;;;1.87;100.00;99571.56;6180307;23;20092;-86
2021/12/27 08:24:30;;;;;;;44.10;24.92;;;;;;;1.88;100.00;99565.28;6156570;23;20467;-86
2021/12/27 08:26:56;;;;;;;44.42;24.83;;;;;;;1.89;100.00;99566.09;6180681;23;20020;-86
2021/12/27 08:29:21;;;;;;;39.75;25.08;;;;;;;1.90;100.00;99563.34;6155873;23;20024;-87
2021/12/27 08:31:47;;;;;;;42.65;26.23;;;;;;;1.93;100.00;99564.88;6181366;23;20017;-86
2021/12/27 08:34:12;;;;;;;40.55;26.17;;;;;;;1.94;100.00;99562.06;6179520;23;20017;-86
2021/12/27 08:36:38;;;;;;;39.90;24.95;;;;;;;1.97;100.00;99561.78;6179460;23;20054;-86
2021/12/27 08:39:04;;;;;;;39.13;25.63;;;;;;;1.98;100.00;99559.97;6155713;23;20021;-86
2021/12/27 08:41:30;;;;;;;39.55;24.67;;;;;;;2.02;100.00;99562.22;6180305;23;20079;-86
2021/12/27 08:44:01;;;;;;;44.13;23.38;;;;;;;2.05;100.00;99558.47;6182628;23;20013;-87
2021/12/27 08:46:26;;;;;;;39.00;25.75;;;;;;;2.07;100.00;99556.50;6181568;23;20080;-86
2021/12/27 08:48:52;;;;;;;39.95;26.05;;;;;;;2.11;100.00;99549.13;6181130;23;20033;-86
2021/12/27 08:51:18;;;;;;;39.83;24.73;;;;;;;2.14;100.00;99543.56;6178827;23;20032;-86
2021/12/27 08:53:43;;;;;;;40.15;25.42;;;;;;;2.17;100.00;99554.69;6132312;23;20009;-87
2021/12/27 08:56:09;;;;;;;37.78;24.42;;;;;;;2.19;100.00;99552.75;6180706;23;20111;-87
2021/12/27 08:58:34;;;;;;;34.78;22.70;;;;;;;2.21;100.00;99553.41;6179484;23;20024;-86
2021/12/27 09:01:00;;;;;;;36.13;22.88;;;;;;;2.25;100.00;99548.69;6151805;23;20017;-87
2021/12/27 09:03:25;;;;;;;37.00;20.98;;;;;;;2.31;100.00;99542.84;6177114;23;20444;-87
2021/12/27 09:05:50;;;;;;;35.78;21.45;;;;;;;2.33;100.00;99538.25;6180795;23;20089;-86
2021/12/27 09:08:16;;;;;;;38.15;24.42;;;;;;;2.34;100.00;99533.78;6154878;23;20013;-86
2021/12/27 09:10:42;;;;;;;36.75;23.05;;;;;;;2.37;100.00;99534.31;6182018;23;20028;-86
2021/12/27 09:13:07;;;;;;;36.10;22.70;;;;;;;2.41;100.00;99535.69;6155133;23;20012;-88
2021/12/27 09:15:32;;;;;;;31.77;20.85;;;;;;;2.44;100.00;99539.88;6179982;23;20021;-86
2021/12/27 09:17:58;;;;;;;34.53;23.13;;;;;;;2.48;100.00;99534.16;6181147;23;20013;-87
2021/12/27 09:20:26;;;;;;;33.58;20.30;;;;;;;2.55;100.00;99530.94;6181682;23;20013;-86
2021/12/27 09:22:52;;;;;;;32.05;22.15;;;;;;;2.59;100.00;99532.31;6156247;23;20078;-86
2021/12/27 09:25:17;;;;;;;32.88;20.48;;;;;;;2.61;100.00;99525.06;6129209;23;20025;-87
2021/12/27 09:27:43;;;;;;;30.85;19.48;;;;;;;2.65;100.00;99529.09;6183010;23;20021;-86
2021/12/27 09:30:10;;;;;;;32.38;20.13;;;;;;;2.68;100.00;99527.00;6181398;23;20020;-86
2021/12/27 09:32:36;;;;;;;28.67;19.73;;;;;;;2.71;100.00;99528.53;6181046;23;20480;-86
2021/12/27 09:35:02;;;;;;;27.95;18.73;;;;;;;2.74;100.00;99528.22;6180541;23;20017;-86
2021/12/27 09:37:27;;;;;;;28.63;18.73;;;;;;;2.77;100.00;99532.41;6156847;23;20021;-87
2021/12/27 09:39:55;;;;;;;29.83;19.80;;;;;;;2.78;100.00;99532.25;6180543;23;20096;-86
2021/12/27 09:42:22;;;;;;;26.75;17.95;;;;;;;2.83;100.00;99530.00;6178574;23;20023;-86
2021/12/27 09:44:48;;;;;;;27.90;19.35;;;;;;;2.85;100.00;99532.50;6155769;23;20017;-87
2021/12/27 09:47:14;;;;;;;26.98;18.90;;;;;;;2.86;100.00;99531.53;6164700;23;20016;-87
2021/12/27 09:49:39;;;;;;;27.05;19.38;;;;;;;2.89;100.00;99524.13;6182054;23;20620;-86
2021/12/27 09:52:05;;;;;;;29.85;18.75;;;;;;;2.89;100.00;99526.78;6180813;23;20020;-85
2021/12/27 09:54:31;;;;;;;25.55;18.25;;;;;;;2.91;100.00;99529.28;6155827;23;20009;-85
2021/12/27 09:56:57;;;;;;;26.98;19.27;;;;;;;2.94;100.00;99527.19;6130347;23;20355;-87
2021/12/27 09:59:23;;;;;;;27.90;16.77;;;;;;;2.97;100.00;99530.53;6155003;23;20017;-86
2021/12/27 10:01:51;;;;;;;25.90;18.80;;;;;;;2.98;100.00;99527.72;6155893;23;20021;-86
2021/12/27 10:04:18;;;;;;;27.35;18.58;;;;;;;3.00;100.00;99522.28;6178947;23;20087;-86
2021/12/27 10:06:43;;;;;;;25.90;17.85;;;;;;;3.03;100.00;99519.34;6179187;23;20025;-86
2021/12/27 10:09:09;;;;;;;26.40;17.08;;;;;;;3.06;100.00;99517.22;6154194;23;20410;-87
2021/12/27 10:11:40;;;;;;;27.08;19.65;;;;;;;3.11;100.00;99522.09;6154990;23;20420;-86
2021/12/27 10:14:09;;;;;;;25.35;18.02;;;;;;;3.12;100.00;99523.75;6153607;23;20055;-87
2021/12/27 10:16:40;;;;;;;23.40;18.13;;;;;;;3.14;100.00;99522.63;6180214;23;20017;-86
2021/12/27 10:19:09;;;;;;;24.17;16.70;;;;;;;3.16;100.00;99518.00;6177315;23;20105;-86
2021/12/27 10:21:35;;;;;;;24.33;16.15;;;;;;;3.19;100.00;99518.69;6154577;23;20020;-86
2021/12/27 10:24:06;;;;;;;23.17;16.50;;;;;;;3.20;100.00;99521.19;6179624;23;20020;-86
2021/12/27 10:26:33;;;;;;;24.63;16.92;;;;;;;3.20;100.00;99510.59;6155499;23;20356;-86
2021/12/27 10:29:16;;;;;;;22.85;15.73;;;;;;;3.24;100.00;99508.47;6180230;23;20013;-86
2021/12/27 10:32:05;;;;;;;26.20;18.08;;;;;;;3.26;100.00;99504.69;6154543;23;20021;-86
2021/12/27 10:34:45;;;;;;;25.10;14.93;;;;;;;3.26;100.00;99507.34;6153904;23;20021;-86
2021/12/27 10:37:25;;;;;;;21.90;16.55;;;;;;;3.27;100.00;99501.03;6179454;23;20432;-86
2021/12/27 10:39:56;;;;;;;;;;;;;;;3.30;100.00;99495.44;6177779;23;20014;-86
2021/12/27 10:42:47;;;;;;;24.23;17.00;;;;;;;3.25;100.00;99496.88;6178233;23;19908;-87
2021/12/27 10:45:21;;;;;;;23.45;15.43;;;;;;;3.28;100.00;99491.28;6176144;23;20016;-86
2021/12/27 10:48:33;;;;;;;22.73;16.38;;;;;;;3.33;100.00;99492.50;6175464;23;20013;-87
2021/12/27 10:51:00;;;;;;;23.45;16.23;;;;;;;3.37;100.00;99493.88;6173643;23;20025;-86
2021/12/27 10:53:55;;;;;;;23.00;15.45;;;;;;;3.45;100.00;99484.31;6174435;23;20021;-85
2021/12/27 10:56:48;;;;;;;20.70;13.73;;;;;;;3.50;100.00;99474.09;6176780;23;20733;-86
2021/12/27 10:59:19;;;;;;;22.17;16.13;;;;;;;3.67;100.00;99464.47;6176428;23;20053;-87
2021/12/27 11:01:47;;;;;;;21.17;15.73;;;;;;;3.87;100.00;99471.28;6155110;23;20024;-86
2021/12/27 11:04:16;;;;;;;19.20;14.00;;;;;;;4.08;100.00;99468.28;6153305;23;20017;-85
2021/12/27 11:06:42;;;;;;;18.50;12.80;;;;;;;4.16;100.00;99468.34;6178220;23;20013;-86
2021/12/27 11:09:09;;;;;;;17.65;12.40;;;;;;;4.19;100.00;99470.69;6174259;23;20255;-86
2021/12/27 11:11:40;;;;;;;18.65;13.05;;;;;;;4.22;100.00;99486.31;6177762;23;20045;-86
2021/12/27 11:14:12;;;;;;;18.33;13.13;;;;;;;4.23;100.00;99481.84;6153111;23;20025;-85
2021/12/27 11:16:37;;;;;;;17.65;13.43;;;;;;;4.27;100.00;99478.72;6154987;23;20013;-86
2021/12/27 11:19:15;;;;;;;17.48;13.00;;;;;;;4.29;100.00;99479.41;6151739;23;20385;-86
2021/12/27 11:21:41;;;;;;;17.48;12.80;;;;;;;4.33;100.00;99471.13;6133787;23;20017;-86
2021/12/27 11:24:07;;;;;;;18.58;13.57;;;;;;;4.36;100.00;99465.50;6155815;23;20017;-86
2021/12/27 11:26:38;;;;;;;17.85;13.50;;;;;;;4.38;100.00;99461.69;6183724;23;20016;-86